createdAt,value
2019-05-02T00:00:13.749Z,10.52
2019-05-02T00:02:43.756Z,10.49
2019-05-02T00:05:13.083Z,10.45
2019-05-02T00:07:43.219Z,10.47
2019-05-02T00:10:14.826Z,10.49
2019-05-02T00:12:44.634Z,10.49
2019-05-02T00:15:17.564Z,10.47
2019-05-02T00:17:46.196Z,10.41
2019-05-02T00:20:21.014Z,10.35
2019-05-02T00:22:51.808Z,10.34
2019-05-02T00:25:18.048Z,10.30
2019-05-02T00:27:46.528Z,10.30
2019-05-02T00:30:16.887Z,10.23
2019-05-02T00:32:45.319Z,10.19
2019-05-02T00:35:17.537Z,10.19
2019-05-02T00:37:46.010Z,10.20
2019-05-02T00:40:14.485Z,10.17
2019-05-02T00:42:42.878Z,10.14
2019-05-02T00:45:14.004Z,10.11
2019-05-02T00:47:47.776Z,10.11
2019-05-02T00:50:13.494Z,10.13
2019-05-02T00:52:42.004Z,10.12
2019-05-02T00:55:10.568Z,10.11
2019-05-02T00:57:38.965Z,10.10
2019-05-02T01:00:13.455Z,10.08
2019-05-02T01:02:52.794Z,10.08
2019-05-02T01:05:21.313Z,10.09
2019-05-02T01:07:49.708Z,10.09
2019-05-02T01:10:21.335Z,10.10
2019-05-02T01:12:48.699Z,10.08
2019-05-02T01:15:17.156Z,10.04
2019-05-02T01:17:45.784Z,10.03
2019-05-02T01:20:14.746Z,10.03
2019-05-02T01:22:47.063Z,10.02
2019-05-02T01:25:15.694Z,10.04
2019-05-02T01:27:54.149Z,10.04
2019-05-02T01:30:43.823Z,10.00
2019-05-02T01:33:14.039Z,9.97
2019-05-02T01:36:01.749Z,9.93
2019-05-02T01:38:33.683Z,9.93
2019-05-02T01:41:02.198Z,9.88
2019-05-02T01:43:31.838Z,9.85
2019-05-02T01:46:00.726Z,9.84
2019-05-02T01:48:29.114Z,9.81
2019-05-02T01:50:57.577Z,9.78
2019-05-02T01:53:29.213Z,9.76
2019-05-02T01:55:57.249Z,9.76
2019-05-02T01:58:26.832Z,9.76
2019-05-02T02:00:55.505Z,9.74
2019-05-02T02:03:24.106Z,9.74
2019-05-02T02:05:52.569Z,9.72
2019-05-02T02:08:21.118Z,9.71
2019-05-02T02:10:50.575Z,9.70
2019-05-02T02:13:19.803Z,9.71
2019-05-02T02:15:48.403Z,9.68
2019-05-02T02:18:22.195Z,9.69
2019-05-02T02:20:52.878Z,9.68
2019-05-02T02:23:23.277Z,9.66
2019-05-02T02:26:12.182Z,9.62
2019-05-02T02:29:03.218Z,9.60
2019-05-02T02:31:30.396Z,9.58
2019-05-02T02:33:58.786Z,9.58
2019-05-02T02:39:06.919Z,9.56
2019-05-02T02:44:45.412Z,9.54
2019-05-02T02:49:48.286Z,9.49
2019-05-02T02:52:16.679Z,9.46
2019-05-02T02:54:45.133Z,9.45
2019-05-02T02:57:23.770Z,9.43
2019-05-02T02:59:43.646Z,9.43
2019-05-02T03:02:12.380Z,9.40
2019-05-02T03:05:01.526Z,9.37
2019-05-02T03:07:49.246Z,9.32
2019-05-02T03:10:17.662Z,9.29
2019-05-02T03:13:05.192Z,9.26
2019-05-02T03:20:42.780Z,9.16
2019-05-02T03:23:24.218Z,9.03
2019-05-02T03:26:15.162Z,8.96
2019-05-02T03:29:01.375Z,8.87
2019-05-02T03:31:49.072Z,8.86
2019-05-02T03:37:31.014Z,8.87
2019-05-02T03:40:41.359Z,8.84
2019-05-02T03:43:09.540Z,8.82
2019-05-02T03:48:33.306Z,8.71
2019-05-02T03:51:05.025Z,8.73
2019-05-02T03:54:11.840Z,8.76
2019-05-02T03:57:32.037Z,8.79
2019-05-02T04:00:13.781Z,8.80
2019-05-02T04:06:27.724Z,8.78
2019-05-02T04:09:41.979Z,8.79
2019-05-02T04:12:46.343Z,8.81
2019-05-02T04:15:14.792Z,8.83
2019-05-02T04:18:23.148Z,8.83
2019-05-02T04:21:31.463Z,8.84
2019-05-02T04:24:15.684Z,8.82
2019-05-02T04:27:27.811Z,8.81
2019-05-02T04:32:25.977Z,8.81
2019-05-02T04:34:57.705Z,8.80
2019-05-02T04:37:24.528Z,8.79
2019-05-02T04:39:53.646Z,8.77
2019-05-02T04:45:14.200Z,8.67
2019-05-02T04:47:29.081Z,8.58
2019-05-02T04:49:58.562Z,8.50
2019-05-02T04:55:14.550Z,8.37
2019-05-02T05:00:50.162Z,8.40
2019-05-02T05:05:48.654Z,8.64
2019-05-02T05:08:26.046Z,8.72
2019-05-02T05:13:23.291Z,8.85
2019-05-02T05:15:51.995Z,8.92
2019-05-02T05:18:21.059Z,8.97
2019-05-02T05:20:53.049Z,9.03
2019-05-02T05:31:11.306Z,9.26
2019-05-02T05:33:39.753Z,9.33
2019-05-02T05:36:08.445Z,9.39
2019-05-02T05:38:40.560Z,9.45
2019-05-02T05:41:12.840Z,9.50
2019-05-02T05:44:23.347Z,9.55
2019-05-02T05:46:49.472Z,9.63
2019-05-02T05:49:21.777Z,9.70
2019-05-02T05:51:49.529Z,9.75
2019-05-02T06:02:13.071Z,9.99
2019-05-02T06:04:38.766Z,10.05
2019-05-02T06:10:21.732Z,10.18
2019-05-02T06:12:50.129Z,10.28
2019-05-02T06:15:39.016Z,10.36
2019-05-02T06:18:08.126Z,10.43
2019-05-02T06:20:36.521Z,10.50
2019-05-02T06:25:58.669Z,10.62
2019-05-02T06:28:27.114Z,10.69
2019-05-02T06:30:55.519Z,10.76
2019-05-02T06:33:25.828Z,10.83
2019-05-02T06:38:28.125Z,11.01
2019-05-02T06:41:20.528Z,11.11
2019-05-02T06:43:47.024Z,11.15
2019-05-02T06:46:21.220Z,11.21
2019-05-02T06:48:48.129Z,11.30
2019-05-02T06:51:35.561Z,11.38
2019-05-02T06:59:32.589Z,11.64
2019-05-02T07:02:01.050Z,11.71
2019-05-02T07:07:25.099Z,11.89
2019-05-02T07:10:44.051Z,12.00
2019-05-02T07:13:10.701Z,12.13
2019-05-02T07:15:52.819Z,12.26
2019-05-02T07:18:59.672Z,12.33
2019-05-02T07:24:02.637Z,12.45
2019-05-02T07:26:31.056Z,12.53
2019-05-02T07:28:59.453Z,12.64
2019-05-02T07:31:27.862Z,12.75
2019-05-02T07:33:56.292Z,12.86
2019-05-02T07:36:24.689Z,12.98
2019-05-02T07:38:57.543Z,13.07
2019-05-02T07:43:57.551Z,13.26
2019-05-02T07:46:27.236Z,13.38
2019-05-02T07:48:56.658Z,13.49
2019-05-02T07:51:25.765Z,13.59
2019-05-02T07:53:55.677Z,13.69
2019-05-02T07:56:24.306Z,13.78
2019-05-02T07:59:32.639Z,13.91
2019-05-02T08:02:01.029Z,14.03
2019-05-02T08:04:48.727Z,14.13
2019-05-02T08:07:21.107Z,14.24
2019-05-02T08:09:47.253Z,14.38
2019-05-02T08:12:34.869Z,14.48
2019-05-02T08:18:11.341Z,14.70
2019-05-02T08:20:39.806Z,14.84
2019-05-02T08:23:08.206Z,14.93
2019-05-02T08:25:36.661Z,15.06
2019-05-02T08:28:47.040Z,15.19
2019-05-02T08:34:05.777Z,15.45
2019-05-02T08:36:32.349Z,15.55
2019-05-02T08:39:00.758Z,15.67
2019-05-02T08:41:29.174Z,15.77
2019-05-02T08:46:31.184Z,15.99
2019-05-02T08:48:59.584Z,16.06
2019-05-02T08:51:28.014Z,16.14
2019-05-02T08:53:57.236Z,16.22
2019-05-02T08:56:26.600Z,16.32
2019-05-02T08:58:55.015Z,16.43
2019-05-02T09:01:34.527Z,16.52
2019-05-02T09:03:56.683Z,16.69
2019-05-02T09:06:24.167Z,16.83
2019-05-02T09:08:53.784Z,16.96
2019-05-02T09:11:22.179Z,17.09
2019-05-02T09:13:52.481Z,17.17
2019-05-02T09:16:21.566Z,17.28
2019-05-02T09:18:53.972Z,17.41
2019-05-02T09:21:21.973Z,17.54
2019-05-02T09:23:51.743Z,17.63
2019-05-02T09:26:33.267Z,17.72
2019-05-02T09:28:51.753Z,17.85
2019-05-02T09:31:22.639Z,17.96
2019-05-02T09:33:52.095Z,18.07
2019-05-02T09:36:22.755Z,18.13
2019-05-02T09:38:56.019Z,18.21
2019-05-02T09:41:22.263Z,18.25
2019-05-02T09:46:26.608Z,18.25
2019-05-02T09:48:57.043Z,18.30
2019-05-02T09:51:25.146Z,18.38
2019-05-02T09:54:12.954Z,18.56
2019-05-02T09:56:43.083Z,18.65
2019-05-02T09:59:26.199Z,18.72
2019-05-02T10:02:02.020Z,18.84
2019-05-02T10:04:32.593Z,18.95
2019-05-02T10:07:02.532Z,18.99
2019-05-02T10:12:45.900Z,19.30
2019-05-02T10:15:54.263Z,19.40
2019-05-02T10:18:43.101Z,19.52
2019-05-02T10:21:13.487Z,19.64
2019-05-02T10:29:28.399Z,19.92
2019-05-02T10:31:54.083Z,19.98
2019-05-02T10:34:22.806Z,20.01
2019-05-02T10:36:58.705Z,20.08
2019-05-02T10:39:42.350Z,20.15
2019-05-02T10:42:12.525Z,20.22
2019-05-02T10:44:42.728Z,20.31
2019-05-02T10:47:12.885Z,20.40
2019-05-02T10:52:34.170Z,20.62
2019-05-02T10:55:02.620Z,20.73
2019-05-02T10:57:32.633Z,20.74
2019-05-02T11:06:01.134Z,20.97
2019-05-02T11:08:26.459Z,21.07
2019-05-02T11:11:14.112Z,21.15
2019-05-02T11:14:05.748Z,21.19
2019-05-02T11:16:52.469Z,21.31
2019-05-02T11:19:41.923Z,21.40
2019-05-02T11:22:12.122Z,21.53
2019-05-02T11:24:41.821Z,21.67
2019-05-02T11:27:12.678Z,21.80
2019-05-02T11:29:42.506Z,21.77
2019-05-02T11:32:30.238Z,21.76
2019-05-02T11:34:58.660Z,21.86
2019-05-02T11:37:27.061Z,22.01
2019-05-02T11:39:59.962Z,22.11
2019-05-02T11:42:27.258Z,22.14
2019-05-02T11:44:55.716Z,22.28
2019-05-02T11:47:26.626Z,22.46
2019-05-02T11:49:55.964Z,22.56
2019-05-02T11:52:27.471Z,22.64
2019-05-02T11:54:54.533Z,22.64
2019-05-02T11:57:28.394Z,22.54
2019-05-02T11:59:53.134Z,22.63
2019-05-02T12:03:02.214Z,22.78
2019-05-02T12:05:52.422Z,22.83
2019-05-02T12:11:17.700Z,22.70
2019-05-02T12:13:47.245Z,22.87
2019-05-02T12:16:35.315Z,22.96
2019-05-02T12:22:16.715Z,22.99
2019-05-02T12:24:45.278Z,23.03
2019-05-02T12:27:12.129Z,23.15
2019-05-02T12:32:15.671Z,23.32
2019-05-02T12:35:04.475Z,23.43
2019-05-02T12:37:32.871Z,23.52
2019-05-02T12:40:02.721Z,23.51
2019-05-02T12:42:32.936Z,23.55
2019-05-02T12:45:02.838Z,23.69
2019-05-02T12:47:31.964Z,23.83
2019-05-02T12:50:03.183Z,23.86
2019-05-02T12:52:32.139Z,23.82
2019-05-02T12:55:02.394Z,23.73
2019-05-02T12:57:32.273Z,23.73
2019-05-02T13:00:19.871Z,23.87
2019-05-02T13:03:07.681Z,23.91
2019-05-02T13:05:36.080Z,23.87
2019-05-02T13:08:04.554Z,23.94
2019-05-02T13:10:54.050Z,24.09
2019-05-02T13:32:27.329Z,23.07
2019-05-02T13:35:15.004Z,23.24
2019-05-02T13:38:04.230Z,23.44
2019-05-02T13:48:58.295Z,23.80
2019-05-02T13:51:26.696Z,23.74
2019-05-02T13:57:03.411Z,23.37
2019-05-02T13:59:52.560Z,23.28
2019-05-02T14:03:02.858Z,23.24
2019-05-02T14:05:53.652Z,23.34
2019-05-02T14:08:42.989Z,23.41
2019-05-02T14:11:31.759Z,23.32
2019-05-02T14:16:33.919Z,22.89
2019-05-02T14:19:02.949Z,22.78
2019-05-02T14:21:32.455Z,22.72
2019-05-02T14:24:01.735Z,22.67
2019-05-02T14:26:43.313Z,22.56
2019-05-02T14:29:12.610Z,22.56
2019-05-02T14:31:42.193Z,22.57
2019-05-02T14:34:32.858Z,22.49
2019-05-02T14:37:02.041Z,22.42
2019-05-02T14:39:32.534Z,22.41
2019-05-02T14:42:02.089Z,22.47
2019-05-02T14:44:59.965Z,22.49
2019-05-02T14:47:02.265Z,22.46
2019-05-02T14:49:32.304Z,22.51
2019-05-02T14:52:06.911Z,22.59
2019-05-02T14:54:32.580Z,22.61
2019-05-02T14:57:27.075Z,22.74
2019-05-02T15:08:11.894Z,22.99
2019-05-02T15:10:50.687Z,23.06
2019-05-02T15:13:12.582Z,22.97
2019-05-02T15:15:43.493Z,22.88
2019-05-02T15:18:15.873Z,22.70
2019-05-02T15:20:42.430Z,22.57
2019-05-02T15:23:19.364Z,22.50
2019-05-02T15:25:42.490Z,22.48
2019-05-02T15:31:23.513Z,22.66
2019-05-02T15:34:08.381Z,22.72
2019-05-02T15:41:48.600Z,23.14
2019-05-02T15:44:18.905Z,23.23
2019-05-02T15:54:55.531Z,23.19
2019-05-02T15:57:24.279Z,23.12
2019-05-02T15:59:51.661Z,23.11
2019-05-02T16:05:02.342Z,23.13
2019-05-02T16:10:56.886Z,23.05
2019-05-02T16:13:25.289Z,22.81
2019-05-02T16:15:57.157Z,22.59
2019-05-02T16:18:24.012Z,22.51
2019-05-02T16:26:17.083Z,22.06
2019-05-02T16:28:45.662Z,21.93
2019-05-02T16:36:39.253Z,21.79
2019-05-02T16:39:49.659Z,21.78
2019-05-02T16:42:17.718Z,21.70
2019-05-02T16:44:46.118Z,21.62
2019-05-02T16:48:03.253Z,21.49
2019-05-02T16:56:07.244Z,21.04
2019-05-02T16:58:37.985Z,21.00
2019-05-02T17:01:07.528Z,20.89
2019-05-02T17:09:44.936Z,20.62
2019-05-02T17:15:26.027Z,20.47
2019-05-02T17:17:54.208Z,20.40
2019-05-02T17:20:22.205Z,20.35
2019-05-02T17:26:05.966Z,20.32
2019-05-02T17:31:23.478Z,20.28
2019-05-02T17:33:54.413Z,20.23
2019-05-02T17:36:28.527Z,20.18
2019-05-02T17:38:54.426Z,20.09
2019-05-02T17:41:22.691Z,19.94
2019-05-02T17:43:51.084Z,19.82
2019-05-02T17:46:21.940Z,19.66
2019-05-02T17:48:52.742Z,19.53
2019-05-02T17:54:09.020Z,19.33
2019-05-02T17:56:57.530Z,19.15
2019-05-02T17:59:28.222Z,19.04
2019-05-02T18:01:56.801Z,18.93
2019-05-02T18:04:25.262Z,18.83
2019-05-02T18:09:47.104Z,18.59
2019-05-02T18:12:59.633Z,18.56
2019-05-02T18:15:29.829Z,18.48
2019-05-02T18:17:59.750Z,18.44
2019-05-02T18:20:26.271Z,18.39
2019-05-02T18:22:54.664Z,18.33
2019-05-02T18:25:25.231Z,18.33
2019-05-02T18:30:27.771Z,18.27
2019-05-02T18:32:57.725Z,18.17
2019-05-02T18:35:46.986Z,18.08
2019-05-02T18:40:51.753Z,17.90
2019-05-02T18:45:58.185Z,17.68
2019-05-02T18:48:24.066Z,17.59
2019-05-02T18:50:52.783Z,17.49
2019-05-02T18:58:53.468Z,17.31
2019-05-02T19:01:42.704Z,17.25
2019-05-02T19:04:13.100Z,17.23
2019-05-02T19:06:42.044Z,17.22
2019-05-02T19:09:53.900Z,17.16
2019-05-02T19:12:25.783Z,17.09
2019-05-02T19:14:52.786Z,17.03
2019-05-02T19:19:56.554Z,16.98
2019-05-02T19:22:24.983Z,16.96
2019-05-02T19:24:53.379Z,16.94
2019-05-02T19:27:42.935Z,16.97
2019-05-02T19:33:23.404Z,17.04
2019-05-02T19:36:10.920Z,17.04
2019-05-02T19:41:13.153Z,17.01
2019-05-02T19:43:49.345Z,17.03
2019-05-02T19:46:34.729Z,17.04
2019-05-02T19:49:02.094Z,17.00
2019-05-02T19:54:26.190Z,16.96
2019-05-02T19:56:54.626Z,16.76
2019-05-02T20:00:06.508Z,16.61
2019-05-02T20:02:37.383Z,16.51
2019-05-02T20:10:32.281Z,15.98
2019-05-02T20:13:03.111Z,15.81
2019-05-02T20:18:21.193Z,15.62
2019-05-02T20:21:29.520Z,15.64
2019-05-02T20:26:32.597Z,15.42
2019-05-02T20:31:36.476Z,15.07
2019-05-02T20:34:44.918Z,14.93
2019-05-02T20:37:13.316Z,14.83
2019-05-02T20:39:41.770Z,14.65
2019-05-02T20:42:11.984Z,14.48
2019-05-02T20:44:41.839Z,14.33
2019-05-02T20:47:52.389Z,14.31
2019-05-02T20:53:12.733Z,14.05
2019-05-02T20:55:41.674Z,13.91
2019-05-02T20:58:10.341Z,13.76
2019-05-02T21:03:33.356Z,13.55
2019-05-02T21:09:52.359Z,13.29
2019-05-02T21:18:02.438Z,12.88
2019-05-02T21:20:32.633Z,12.82
2019-05-02T21:23:02.620Z,12.77
2019-05-02T21:26:11.152Z,12.73
2019-05-02T21:28:39.553Z,12.70
2019-05-02T21:31:27.290Z,12.60
2019-05-02T21:33:55.684Z,12.45
2019-05-02T21:36:43.506Z,12.31
2019-05-02T21:39:52.141Z,12.25
2019-05-02T21:42:22.613Z,12.11
2019-05-02T21:44:52.144Z,11.97
2019-05-02T21:47:22.329Z,11.86
2019-05-02T21:53:08.105Z,11.78
2019-05-02T21:55:55.610Z,11.74
2019-05-02T21:58:24.029Z,11.72
2019-05-02T22:01:32.903Z,11.77
2019-05-02T22:04:02.484Z,11.85
2019-05-02T22:09:39.009Z,11.87
2019-05-02T22:12:26.594Z,11.90
2019-05-02T22:17:29.419Z,11.92
2019-05-02T22:19:57.840Z,11.93
2019-05-02T22:22:26.273Z,11.96
2019-05-02T22:24:54.668Z,11.93
2019-05-02T22:29:57.100Z,11.82
2019-05-02T22:35:01.866Z,11.69
2019-05-02T22:40:44.342Z,11.60
2019-05-02T22:45:46.982Z,11.46
2019-05-02T22:48:15.372Z,11.46
2019-05-02T22:50:43.764Z,11.44
2019-05-02T22:55:45.784Z,11.33
2019-05-02T22:58:14.182Z,11.29
2019-05-02T23:00:42.669Z,11.25
2019-05-02T23:03:12.555Z,11.22
2019-05-02T23:05:42.129Z,11.23
2019-05-02T23:08:30.532Z,11.27
2019-05-02T23:10:58.937Z,11.32
2019-05-02T23:13:27.322Z,11.33
2019-05-02T23:18:31.841Z,11.38
2019-05-02T23:23:33.623Z,11.47
2019-05-02T23:28:59.871Z,11.52
2019-05-02T23:31:47.458Z,11.50
2019-05-02T23:34:15.890Z,11.42
2019-05-02T23:37:03.614Z,11.42
2019-05-02T23:42:06.548Z,11.46
2019-05-02T23:47:09.064Z,11.48
2019-05-02T23:52:11.796Z,11.53
2019-05-02T23:54:49.911Z,11.56
2019-05-02T23:57:12.125Z,11.60
2019-05-02T23:59:42.413Z,11.69
